Time;durP1;ratioP1;P1;durP2;ratioP2;P2;SDS_P1;SDS_P2;PMS_P1;PMS_P2;Temp;Humidity;BMP_temperature;BMP_pressure;BME280_temperature;BME280_humidity;BME280_pressure;Samples;Min_cycle;Max_cycle;Signal;HPM_P1;HPM_P2
2022/09/18 00:00:27;;;;;;;;;;;;;;;;;;5080995;28;19909;-65
2022/09/18 00:02:53;;;;;;;;;;;;;;;;;;5088371;28;19919;-62
2022/09/18 00:05:18;;;;;;;;;;;;;;;;;;5085973;28;20360;-64
2022/09/18 00:07:43;;;;;;;;;;;;;;;;;;5072076;28;19934;-63
2022/09/18 00:10:08;;;;;;;;;;;;;;;;;;5089173;28;19923;-64
2022/09/18 00:12:33;;;;;;;;;;;;;;;;;;5075633;28;19920;-64
2022/09/18 00:14:58;;;;;;;;;;;;;;;;;;5082736;28;20399;-63
2022/09/18 00:17:23;;;;;;;;;;;;;;;;;;5069471;28;19932;-62
2022/09/18 00:19:49;;;;;;;;;;;;;;;;;;5061171;28;20380;-64
2022/09/18 00:22:14;;;;;;;;;;;;;;;;;;5043161;28;20280;-64
2022/09/18 00:24:39;;;;;;;;;;;;;;;;;;5059985;28;20003;-64
2022/09/18 00:27:04;;;;;;;;;;;;;;;;;;5065432;28;19912;-63
2022/09/18 00:29:30;;;;;;;;;;;;;;;;;;5041063;28;19908;-64
2022/09/18 00:31:55;;;;;;;;;;;;;;;;;;5059619;28;20014;-64
2022/09/18 00:34:20;;;;;;;;;;;;;;;;;;5068991;28;19913;-62
2022/09/18 00:36:45;;;;;;;;;;;;;;;;;;5053351;28;20327;-65
2022/09/18 00:39:11;;;;;;;;;;;;;;;;;;5058018;28;20329;-65
2022/09/18 00:41:36;;;;;;;;;;;;;;;;;;5054063;28;20027;-64
2022/09/18 00:44:02;;;;;;;;;;;;;;;;;;5069678;28;20057;-64
2022/09/18 00:46:27;;;;;;;;;;;;;;;;;;5055199;28;20353;-62
2022/09/18 00:48:52;;;;;;;;;;;;;;;;;;5064667;28;19951;-64
2022/09/18 00:51:17;;;;;;;;;;;;;;;;;;5044068;28;19909;-63
2022/09/18 00:53:42;;;;;;;;;;;;;;;;;;5061932;28;19963;-65
2022/09/18 00:56:07;;;;;;;;;;;;;;;;;;5063271;28;19917;-63
2022/09/18 00:58:32;;;;;;;;;;;;;;;;;;5061847;28;20390;-58
2022/09/18 01:00:58;;;;;;;;;;;;;;;;;;5060223;28;20062;-64
2022/09/18 01:03:23;;;;;;;;;;;;;;;;;;5061786;28;19920;-63
2022/09/18 01:05:48;;;;;;;;;;;;;;;;;;5062244;28;20019;-64
2022/09/18 01:08:13;;;;;;;;;;;;;;;;;;5064676;28;19913;-64
2022/09/18 01:10:39;;;;;;;;;;;;;;;;;;5069440;28;19913;-64
2022/09/18 01:13:04;;;;;;;;;;;;;;;;;;5059988;28;19916;-63
2022/09/18 01:15:29;;;;;;;;;;;;;;;;;;5071153;28;19923;-63
2022/09/18 01:17:54;;;;;;;;;;;;;;;;;;5076609;28;20026;-64
2022/09/18 01:20:19;;;;;;;;;;;;;;;;;;5082916;28;20420;-63
2022/09/18 01:22:44;;;;;;;;;;;;;;;;;;5062693;28;19913;-64
2022/09/18 01:25:10;;;;;;;;;;;;;;;;;;5089240;28;20274;-64
2022/09/18 01:27:35;;;;;;;;;;;;;;;;;;5072444;28;20414;-65
2022/09/18 01:30:00;;;;;;;;;;;;;;;;;;5079646;28;19908;-63
2022/09/18 01:32:26;;;;;;;;;;;;;;;;;;5064438;28;20726;-63
2022/09/18 01:34:51;;;;;;;;;;;;;;;;;;5095132;28;19912;-64
2022/09/18 01:37:16;;;;;;;;;;;;;;;;;;5079684;28;20372;-63
2022/09/18 01:39:42;;;;;;;;;;;;;;;;;;5072524;28;19912;-64
2022/09/18 01:42:07;;;;;;;;;;;;;;;;;;5064676;28;19908;-64
2022/09/18 01:44:32;;;;;;;;;;;;;;;;;;5055446;28;19920;-62
2022/09/18 01:46:57;;;;;;;;;;;;;;;;;;5079681;28;19991;-63
2022/09/18 01:49:22;;;;;;;;;;;;;;;;;;5080831;28;19916;-63
2022/09/18 01:51:47;;;;;;;;;;;;;;;;;;5080614;28;20430;-62
2022/09/18 01:54:13;;;;;;;;;;;;;;;;;;5074163;28;19920;-62
2022/09/18 01:56:38;;;;;;;;;;;;;;;;;;5087083;28;19923;-64
2022/09/18 01:59:03;;;;;;;;;;;;;;;;;;5076375;28;19912;-63
2022/09/18 02:01:28;;;;;;;;;;;;;;;;;;5072763;28;19920;-64
2022/09/18 02:03:53;;;;;;;;;;;;;;;;;;5074421;28;19912;-63
2022/09/18 02:06:18;;;;;;;;;;;;;;;;;;5062182;28;20434;-64
2022/09/18 02:08:44;;;;;;;;;;;;;;;;;;5072641;28;19923;-62
2022/09/18 02:11:09;;;;;;;;;;;;;;;;;;5059981;28;20381;-63
2022/09/18 02:13:34;;;;;;;;;;;;;;;;;;5086058;28;19916;-64
2022/09/18 02:15:59;;;;;;;;;;;;;;;;;;5076286;28;20445;-65
2022/09/18 02:18:24;;;;;;;;;;;;;;;;;;5037266;28;20446;-65
2022/09/18 02:20:49;;;;;;;;;;;;;;;;;;5057988;28;19916;-63
2022/09/18 02:23:14;;;;;;;;;;;;;;;;;;5066802;28;19916;-65
2022/09/18 02:25:40;;;;;;;;;;;;;;;;;;5062668;28;19912;-63
2022/09/18 02:28:05;;;;;;;;;;;;;;;;;;5055812;28;19944;-64
2022/09/18 02:30:30;;;;;;;;;;;;;;;;;;5040904;28;19956;-63
2022/09/18 02:32:55;;;;;;;;;;;;;;;;;;5056856;28;19924;-64
2022/09/18 02:35:20;;;;;;;;;;;;;;;;;;5067812;28;19916;-64
2022/09/18 02:37:45;;;;;;;;;;;;;;;;;;5052941;28;19912;-64
2022/09/18 02:40:10;;;;;;;;;;;;;;;;;;5051629;28;19917;-64
2022/09/18 02:42:36;;;;;;;;;;;;;;;;;;5051572;28;19948;-64
2022/09/18 02:45:01;;;;;;;;;;;;;;;;;;5040644;28;19913;-64
2022/09/18 02:47:26;;;;;;;;;;;;;;;;;;5056333;28;19916;-64
2022/09/18 02:49:51;;;;;;;;;;;;;;;;;;5060074;28;19999;-63
2022/09/18 02:52:16;;;;;;;;;;;;;;;;;;5058093;28;19912;-63
2022/09/18 02:54:41;;;;;;;;;;;;;;;;;;5060515;28;19913;-63
2022/09/18 02:57:07;;;;;;;;;;;;;;;;;;5055276;28;19917;-65
2022/09/18 02:59:32;;;;;;;;;;;;;;;;;;5037805;28;19917;-64
2022/09/18 03:01:57;;;;;;;;;;;;;;;;;;5053316;28;19919;-65
2022/09/18 03:04:22;;;;;;;;;;;;;;;;;;5046999;28;19935;-64
2022/09/18 03:06:47;;;;;;;;;;;;;;;;;;5056373;28;20300;-65
2022/09/18 03:09:12;;;;;;;;;;;;;;;;;;5035005;28;19913;-65
2022/09/18 03:11:38;;;;;;;;;;;;;;;;;;5041422;28;19912;-65
2022/09/18 03:14:03;;;;;;;;;;;;;;;;;;5065492;28;20006;-65
2022/09/18 03:16:28;;;;;;;;;;;;;;;;;;5034515;28;20576;-64
2022/09/18 03:18:53;;;;;;;;;;;;;;;;;;5081017;28;19916;-64
2022/09/18 03:21:19;;;;;;;;;;;;;;;;;;5057078;28;19920;-64
2022/09/18 03:23:44;;;;;;;;;;;;;;;;;;5075535;28;19916;-65
2022/09/18 03:26:10;;;;;;;;;;;;;;;;;;5054896;28;19919;-64
2022/09/18 03:28:35;;;;;;;;;;;;;;;;;;5076325;28;20384;-64
2022/09/18 03:31:00;;;;;;;;;;;;;;;;;;5055810;28;19912;-64
2022/09/18 03:33:25;;;;;;;;;;;;;;;;;;5084554;28;19912;-65
2022/09/18 03:35:50;;;;;;;;;;;;;;;;;;5056522;28;19969;-65
2022/09/18 03:38:15;;;;;;;;;;;;;;;;;;5056650;28;20007;-64
2022/09/18 03:40:40;;;;;;;;;;;;;;;;;;5081566;28;19912;-65
2022/09/18 03:43:06;;;;;;;;;;;;;;;;;;5062108;28;19912;-65
2022/09/18 03:45:31;;;;;;;;;;;;;;;;;;5074887;28;19912;-65
2022/09/18 03:47:57;;;;;;;;;;;;;;;;;;5082633;28;19913;-65
2022/09/18 03:50:22;;;;;;;;;;;;;;;;;;5068202;28;19916;-64
2022/09/18 03:52:47;;;;;;;;;;;;;;;;;;5072775;28;19920;-66
2022/09/18 03:55:12;;;;;;;;;;;;;;;;;;5087651;28;20368;-65
2022/09/18 03:57:37;;;;;;;;;;;;;;;;;;5067030;28;19919;-65
2022/09/18 04:00:02;;;;;;;;;;;;;;;;;;5052527;28;19963;-65
2022/09/18 04:02:28;;;;;;;;;;;;;;;;;;5060993;28;19916;-65
2022/09/18 04:04:53;;;;;;;;;;;;;;;;;;5084659;28;19912;-64
2022/09/18 04:07:18;;;;;;;;;;;;;;;;;;5074596;28;19912;-66
2022/09/18 04:09:43;;;;;;;;;;;;;;;;;;5077817;28;19965;-66
2022/09/18 04:12:09;;;;;;;;;;;;;;;;;;5082921;28;19913;-66
2022/09/18 04:14:34;;;;;;;;;;;;;;;;;;5078187;28;19916;-65
2022/09/18 04:16:59;;;;;;;;;;;;;;;;;;5055977;28;19969;-67
2022/09/18 04:19:24;;;;;;;;;;;;;;;;;;5079794;28;19928;-66
2022/09/18 04:21:49;;;;;;;;;;;;;;;;;;5089580;28;19966;-65
2022/09/18 04:24:14;;;;;;;;;;;;;;;;;;5074388;28;19931;-66
2022/09/18 04:26:39;;;;;;;;;;;;;;;;;;5080440;28;19913;-65
2022/09/18 04:29:05;;;;;;;;;;;;;;;;;;5078777;28;19913;-66
2022/09/18 04:31:30;;;;;;;;;;;;;;;;;;5075454;28;19958;-67
2022/09/18 04:33:55;;;;;;;;;;;;;;;;;;5063054;28;19916;-66
2022/09/18 04:36:20;;;;;;;;;;;;;;;;;;5079538;28;20014;-66
2022/09/18 04:38:45;;;;;;;;;;;;;;;;;;5061684;28;19923;-66
2022/09/18 04:41:10;;;;;;;;;;;;;;;;;;5062065;28;19908;-67
2022/09/18 04:43:35;;;;;;;;;;;;;;;;;;5078139;28;19916;-66
2022/09/18 04:46:01;;;;;;;;;;;;;;;;;;5067914;28;19908;-66
2022/09/18 04:48:26;;;;;;;;;;;;;;;;;;5076882;28;19920;-65
2022/09/18 04:50:51;;;;;;;;;;;;;;;;;;5087178;28;20380;-66
2022/09/18 04:53:16;;;;;;;;;;;;;;;;;;5071568;28;19939;-66
2022/09/18 04:55:41;;;;;;;;;;;;;;;;;;5068216;28;20057;-66
2022/09/18 04:58:07;;;;;;;;;;;;;;;;;;5070154;28;19919;-67
2022/09/18 05:00:33;;;;;;;;;;;;;;;;;;5081627;28;19924;-66
2022/09/18 05:02:59;;;;;;;;;;;;;;;;;;5056624;28;19913;-67
2022/09/18 05:05:24;;;;;;;;;;;;;;;;;;5081429;28;19965;-66
2022/09/18 05:07:49;;;;;;;;;;;;;;;;;;5086568;28;19925;-66
2022/09/18 05:10:14;;;;;;;;;;;;;;;;;;5086471;28;19920;-66
2022/09/18 05:12:39;;;;;;;;;;;;;;;;;;5083864;28;19919;-66
2022/09/18 05:15:05;;;;;;;;;;;;;;;;;;5077219;28;19959;-66
2022/09/18 05:17:31;;;;;;;;;;;;;;;;;;5064655;28;19920;-66
2022/09/18 05:19:56;;;;;;;;;;;;;;;;;;5078907;28;19912;-66
2022/09/18 05:22:21;;;;;;;;;;;;;;;;;;5060941;28;19999;-65
2022/09/18 05:24:47;;;;;;;;;;;;;;;;;;5074561;28;19924;-66
2022/09/18 05:27:12;;;;;;;;;;;;;;;;;;5077688;28;19920;-65
2022/09/18 05:29:37;;;;;;;;;;;;;;;;;;5089490;28;20272;-66
2022/09/18 05:32:02;;;;;;;;;;;;;;;;;;5078232;28;20473;-66
2022/09/18 05:34:27;;;;;;;;;;;;;;;;;;5076135;28;19912;-66
2022/09/18 05:36:52;;;;;;;;;;;;;;;;;;5070012;28;19928;-67
2022/09/18 05:39:17;;;;;;;;;;;;;;;;;;5075675;28;20257;-67
2022/09/18 05:41:42;;;;;;;;;;;;;;;;;;5081793;28;19908;-67
2022/09/18 05:44:08;;;;;;;;;;;;;;;;;;5082402;28;19923;-67
2022/09/18 05:46:33;;;;;;;;;;;;;;;;;;5080929;28;19912;-65
2022/09/18 05:48:58;;;;;;;;;;;;;;;;;;5075586;28;19963;-67
2022/09/18 05:51:24;;;;;;;;;;;;;;;;;;5056132;28;20284;-66
2022/09/18 05:53:49;;;;;;;;;;;;;;;;;;5079951;28;20007;-67
2022/09/18 05:56:14;;;;;;;;;;;;;;;;;;5056480;28;19923;-67
2022/09/18 05:58:39;;;;;;;;;;;;;;;;;;5060763;28;19981;-67
2022/09/18 06:01:05;;;;;;;;;;;;;;;;;;5056234;28;20273;-66
2022/09/18 06:03:30;;;;;;;;;;;;;;;;;;5062258;28;20007;-67
2022/09/18 06:05:55;;;;;;;;;;;;;;;;;;5079705;28;19971;-66
2022/09/18 06:08:20;;;;;;;;;;;;;;;;;;5077970;28;20147;-67
2022/09/18 06:10:45;;;;;;;;;;;;;;;;;;5078849;28;20329;-67
2022/09/18 06:13:11;;;;;;;;;;;;;;;;;;5081430;28;20582;-67
2022/09/18 06:15:37;;;;;;;;;;;;;;;;;;5055316;28;19916;-67
2022/09/18 06:18:02;;;;;;;;;;;;;;;;;;5064839;28;19928;-65
2022/09/18 06:20:27;;;;;;;;;;;;;;;;;;5079918;28;19920;-65
2022/09/18 06:22:52;;;;;;;;;;;;;;;;;;5057066;28;19912;-65
2022/09/18 06:25:20;;;;;;;;;;;;;;;;;;5085394;28;19934;-66
2022/09/18 06:27:45;;;;;;;;;;;;;;;;;;5074279;28;20265;-66
2022/09/18 06:30:10;;;;;;;;;;;;;;;;;;5065670;28;19919;-66
2022/09/18 06:32:35;;;;;;;;;;;;;;;;;;5087991;28;19916;-66
2022/09/18 06:35:01;;;;;;;;;;;;;;;;;;5080166;28;19948;-67
2022/09/18 06:37:26;;;;;;;;;;;;;;;;;;5072076;28;20288;-67
2022/09/18 06:39:51;;;;;;;;;;;;;;;;;;5057510;28;19939;-66
2022/09/18 06:42:16;;;;;;;;;;;;;;;;;;5081672;28;19970;-66
2022/09/18 06:44:41;;;;;;;;;;;;;;;;;;5068529;28;19916;-66
2022/09/18 06:47:07;;;;;;;;;;;;;;;;;;5082558;28;20278;-66
2022/09/18 06:49:32;;;;;;;;;;;;;;;;;;5080536;28;19923;-65
2022/09/18 06:51:57;;;;;;;;;;;;;;;;;;5076804;28;19916;-66
2022/09/18 06:54:23;;;;;;;;;;;;;;;;;;5081269;28;19955;-66
2022/09/18 06:56:48;;;;;;;;;;;;;;;;;;5076437;28;20406;-67
2022/09/18 06:59:13;;;;;;;;;;;;;;;;;;5087054;28;20267;-67
2022/09/18 07:01:38;;;;;;;;;;;;;;;;;;5071720;28;20392;-66
2022/09/18 07:04:03;;;;;;;;;;;;;;;;;;5062041;28;19912;-66
2022/09/18 07:06:28;;;;;;;;;;;;;;;;;;5082968;28;19916;-67
2022/09/18 07:08:54;;;;;;;;;;;;;;;;;;5070945;28;19916;-67
2022/09/18 07:11:19;;;;;;;;;;;;;;;;;;5059974;28;19908;-66
2022/09/18 07:13:46;;;;;;;;;;;;;;;;;;5066073;28;20018;-67
2022/09/18 07:16:11;;;;;;;;;;;;;;;;;;5068200;28;19931;-67
2022/09/18 07:18:36;;;;;;;;;;;;;;;;;;5083862;28;19932;-67
2022/09/18 07:21:01;;;;;;;;;;;;;;;;;;5072830;28;19922;-67
2022/09/18 07:23:28;;;;;;;;;;;;;;;;;;5078178;28;19974;-66
2022/09/18 07:25:53;;;;;;;;;;;;;;;;;;5056132;28;19913;-66
2022/09/18 07:28:18;;;;;;;;;;;;;;;;;;5063266;28;19912;-66
2022/09/18 07:30:44;;;;;;;;;;;;;;;;;;5061669;28;19912;-66
2022/09/18 07:33:09;;;;;;;;;;;;;;;;;;5078288;28;19989;-67
2022/09/18 07:35:34;;;;;;;;;;;;;;;;;;5086351;28;20426;-67
2022/09/18 07:37:59;;;;;;;;;;;;;;;;;;5062832;28;19954;-67
2022/09/18 07:40:25;;;;;;;;;;;;;;;;;;5068694;28;19916;-66
2022/09/18 07:42:50;;;;;;;;;;;;;;;;;;5057491;28;20012;-67
2022/09/18 07:45:15;;;;;;;;;;;;;;;;;;5054858;28;19919;-67
2022/09/18 07:47:40;;;;;;;;;;;;;;;;;;5076108;28;19908;-67
2022/09/18 07:50:07;;;;;;;;;;;;;;;;;;5085042;28;19916;-66
2022/09/18 07:52:33;;;;;;;;;;;;;;;;;;5087951;28;19956;-65
2022/09/18 07:54:58;;;;;;;;;;;;;;;;;;5087971;28;19952;-67
2022/09/18 07:57:23;;;;;;;;;;;;;;;;;;5057283;28;19920;-64
2022/09/18 07:59:48;;;;;;;;;;;;;;;;;;5076561;28;19912;-66
2022/09/18 08:02:13;;;;;;;;;;;;;;;;;;5059562;28;19917;-66
2022/09/18 08:04:39;;;;;;;;;;;;;;;;;;5072603;28;19920;-66
2022/09/18 08:07:04;;;;;;;;;;;;;;;;;;5071415;28;20409;-70
2022/09/18 08:09:29;;;;;;;;;;;;;;;;;;5071206;28;20387;-69
2022/09/18 08:11:54;;;;;;;;;;;;;;;;;;5071347;28;19920;-67
2022/09/18 08:14:19;;;;;;;;;;;;;;;;;;5073999;28;19919;-66
2022/09/18 08:16:44;;;;;;;;;;;;;;;;;;5068466;28;19928;-67
2022/09/18 08:19:09;;;;;;;;;;;;;;;;;;5080268;28;19920;-66
2022/09/18 08:21:35;;;;;;;;;;;;;;;;;;5076456;28;19928;-67
2022/09/18 08:24:00;;;;;;;;;;;;;;;;;;5076899;28;19917;-68
2022/09/18 08:26:25;;;;;;;;;;;;;;;;;;5058734;28;19916;-66
2022/09/18 08:28:50;;;;;;;;;;;;;;;;;;5054290;28;19928;-69
2022/09/18 08:31:15;;;;;;;;;;;;;;;;;;5076250;28;19965;-66
2022/09/18 08:33:41;;;;;;;;;;;;;;;;;;5084368;28;19912;-68
2022/09/18 08:36:06;;;;;;;;;;;;;;;;;;5085553;28;20704;-66
2022/09/18 08:38:31;;;;;;;;;;;;;;;;;;5057119;28;20329;-67
2022/09/18 08:40:56;;;;;;;;;;;;;;;;;;5077998;28;19916;-66
2022/09/18 08:43:21;;;;;;;;;;;;;;;;;;5079776;28;20387;-66
2022/09/18 08:45:46;;;;;;;;;;;;;;;;;;5076324;28;19912;-67
2022/09/18 08:48:13;;;;;;;;;;;;;;;;;;5057471;28;19923;-66
2022/09/18 08:50:38;;;;;;;;;;;;;;;;;;5073666;28;19912;-66
2022/09/18 08:53:03;;;;;;;;;;;;;;;;;;5059347;28;19920;-66
2022/09/18 08:55:29;;;;;;;;;;;;;;;;;;5072759;28;19927;-67
2022/09/18 08:57:54;;;;;;;;;;;;;;;;;;5060397;28;19912;-66
2022/09/18 09:00:20;;;;;;;;;;;;;;;;;;5075015;28;19912;-66
2022/09/18 09:02:46;;;;;;;;;;;;;;;;;;5075389;28;19919;-67
2022/09/18 09:05:11;;;;;;;;;;;;;;;;;;5073071;28;19916;-68
2022/09/18 09:07:36;;;;;;;;;;;;;;;;;;5055946;28;19927;-67
2022/09/18 09:10:03;;;;;;;;;;;;;;;;;;5055877;28;20042;-67
2022/09/18 09:12:28;;;;;;;;;;;;;;;;;;5060339;28;19924;-68
2022/09/18 09:14:53;;;;;;;;;;;;;;;;;;5053806;28;19912;-66
2022/09/18 09:17:18;;;;;;;;;;;;;;;;;;5069779;28;20483;-67
2022/09/18 09:19:43;;;;;;;;;;;;;;;;;;5073288;28;20440;-64
2022/09/18 09:22:09;;;;;;;;;;;;;;;;;;5076349;28;19916;-67
2022/09/18 09:24:34;;;;;;;;;;;;;;;;;;5075372;28;20369;-66
2022/09/18 09:26:59;;;;;;;;;;;;;;;;;;5079400;28;19966;-66
2022/09/18 09:29:27;;;;;;;;;;;;;;;;;;5075790;28;19967;-64
2022/09/18 09:31:52;;;;;;;;;;;;;;;;;;5058542;28;19928;-64
2022/09/18 09:34:17;;;;;;;;;;;;;;;;;;5080344;28;19908;-65
2022/09/18 09:36:43;;;;;;;;;;;;;;;;;;5077918;28;19920;-65
2022/09/18 09:39:08;;;;;;;;;;;;;;;;;;5082492;28;19919;-65
2022/09/18 09:41:33;;;;;;;;;;;;;;;;;;5081382;28;19916;-64
2022/09/18 09:43:58;;;;;;;;;;;;;;;;;;5075162;28;19942;-66
2022/09/18 09:46:23;;;;;;;;;;;;;;;;;;5056305;28;19965;-64
2022/09/18 09:48:48;;;;;;;;;;;;;;;;;;5082659;28;19916;-64
2022/09/18 09:51:14;;;;;;;;;;;;;;;;;;5073532;28;20011;-67
2022/09/18 09:53:39;;;;;;;;;;;;;;;;;;5072317;28;19959;-66
2022/09/18 09:56:04;;;;;;;;;;;;;;;;;;5072837;28;19963;-63
2022/09/18 09:58:30;;;;;;;;;;;;;;;;;;5071688;28;19958;-64
2022/09/18 10:00:55;;;;;;;;;;;;;;;;;;5069460;28;20372;-65
2022/09/18 10:03:20;;;;;;;;;;;;;;;;;;5072772;28;20300;-65
2022/09/18 10:05:45;;;;;;;;;;;;;;;;;;5054498;28;20388;-65
2022/09/18 10:08:11;;;;;;;;;;;;;;;;;;5059084;28;20423;-65
2022/09/18 10:10:36;;;;;;;;;;;;;;;;;;5074500;28;20189;-64
2022/09/18 10:13:01;;;;;;;;;;;;;;;;;;5053045;28;19995;-66
2022/09/18 10:15:26;;;;;;;;;;;;;;;;;;5074921;28;19920;-64
2022/09/18 10:17:51;;;;;;;;;;;;;;;;;;5074168;28;19936;-65
2022/09/18 10:20:16;;;;;;;;;;;;;;;;;;5059188;28;19912;-66
2022/09/18 10:22:42;;;;;;;;;;;;;;;;;;5056093;28;20001;-66
2022/09/18 10:25:07;;;;;;;;;;;;;;;;;;5053437;28;19923;-66
2022/09/18 10:27:32;;;;;;;;;;;;;;;;;;5072286;28;19916;-67
2022/09/18 10:29:58;;;;;;;;;;;;;;;;;;5068868;28;19913;-66
2022/09/18 10:32:23;;;;;;;;;;;;;;;;;;5072049;28;19920;-65
2022/09/18 10:34:48;;;;;;;;;;;;;;;;;;5072497;28;20372;-64
2022/09/18 10:37:13;;;;;;;;;;;;;;;;;;5070332;28;20126;-64
2022/09/18 10:39:39;;;;;;;;;;;;;;;;;;5072703;28;19969;-64
2022/09/18 10:42:04;;;;;;;;;;;;;;;;;;5051085;28;19932;-65
2022/09/18 10:44:29;;;;;;;;;;;;;;;;;;5072340;28;19924;-64
2022/09/18 10:46:55;;;;;;;;;;;;;;;;;;5071828;28;19927;-64
2022/09/18 10:49:20;;;;;;;;;;;;;;;;;;5068490;28;19994;-64
2022/09/18 10:51:46;;;;;;;;;;;;;;;;;;5074389;28;19954;-65
2022/09/18 10:54:11;;;;;;;;;;;;;;;;;;5061086;28;20020;-66
2022/09/18 10:56:36;;;;;;;;;;;;;;;;;;5085204;28;19916;-66
2022/09/18 10:59:01;;;;;;;;;;;;;;;;;;5059664;28;19942;-65
2022/09/18 11:01:27;;;;;;;;;;;;;;;;;;5074540;28;19918;-65
2022/09/18 11:03:52;;;;;;;;;;;;;;;;;;5055871;28;20278;-64
2022/09/18 11:06:17;;;;;;;;;;;;;;;;;;5071982;28;20367;-65
2022/09/18 11:08:42;;;;;;;;;;;;;;;;;;5052838;28;20326;-64
2022/09/18 11:11:08;;;;;;;;;;;;;;;;;;5070681;28;19913;-66
2022/09/18 11:13:33;;;;;;;;;;;;;;;;;;5081810;28;19919;-67
2022/09/18 11:15:58;;;;;;;;;;;;;;;;;;5074207;28;19916;-67
2022/09/18 11:18:23;;;;;;;;;;;;;;;;;;5054406;28;19924;-67
2022/09/18 11:20:49;;;;;;;;;;;;;;;;;;5074405;28;20390;-67
2022/09/18 11:23:14;;;;;;;;;;;;;;;;;;5076090;28;19920;-66
2022/09/18 11:25:40;;;;;;;;;;;;;;;;;;5078842;28;20376;-67
2022/09/18 11:28:05;;;;;;;;;;;;;;;;;;5074240;28;20007;-66
2022/09/18 11:30:30;;;;;;;;;;;;;;;;;;5077454;28;20399;-67
2022/09/18 11:32:57;;;;;;;;;;;;;;;;;;5065275;28;20319;-66
2022/09/18 11:35:22;;;;;;;;;;;;;;;;;;5084024;28;19913;-68
2022/09/18 11:37:47;;;;;;;;;;;;;;;;;;5086057;28;19920;-67
2022/09/18 11:40:13;;;;;;;;;;;;;;;;;;5082223;28;19908;-67
2022/09/18 11:42:38;;;;;;;;;;;;;;;;;;5085385;28;19913;-67
2022/09/18 11:45:03;;;;;;;;;;;;;;;;;;5064797;28;19916;-67
2022/09/18 11:47:29;;;;;;;;;;;;;;;;;;5082059;28;20292;-67
2022/09/18 11:49:54;;;;;;;;;;;;;;;;;;5064349;28;20336;-67
2022/09/18 11:52:19;;;;;;;;;;;;;;;;;;5074258;28;19916;-68
2022/09/18 11:54:45;;;;;;;;;;;;;;;;;;5075259;28;19916;-67
2022/09/18 11:57:10;;;;;;;;;;;;;;;;;;5079135;28;19959;-68
2022/09/18 11:59:35;;;;;;;;;;;;;;;;;;5081663;28;20364;-67
2022/09/18 12:02:01;;;;;;;;;;;;;;;;;;5084136;28;19963;-67
2022/09/18 12:04:26;;;;;;;;;;;;;;;;;;5083983;28;19912;-67
2022/09/18 12:06:52;;;;;;;;;;;;;;;;;;5071631;28;19982;-68
2022/09/18 12:09:17;;;;;;;;;;;;;;;;;;5059140;28;19912;-68
2022/09/18 12:11:42;;;;;;;;;;;;;;;;;;5083962;28;19957;-67
2022/09/18 12:14:07;;;;;;;;;;;;;;;;;;5061343;28;19923;-67
2022/09/18 12:16:32;;;;;;;;;;;;;;;;;;5070168;28;20437;-65
2022/09/18 12:18:58;;;;;;;;;;;;;;;;;;5075441;28;20360;-66
2022/09/18 12:21:23;;;;;;;;;;;;;;;;;;5079123;28;19912;-66
2022/09/18 12:23:48;;;;;;;;;;;;;;;;;;5058027;28;20401;-66
2022/09/18 12:26:13;;;;;;;;;;;;;;;;;;5083378;28;19920;-67
2022/09/18 12:28:38;;;;;;;;;;;;;;;;;;5083781;28;19986;-67
2022/09/18 12:31:04;;;;;;;;;;;;;;;;;;5074745;28;19912;-67
2022/09/18 12:33:29;;;;;;;;;;;;;;;;;;5072400;28;19916;-65
2022/09/18 12:35:54;;;;;;;;;;;;;;;;;;5074426;28;19990;-67
2022/09/18 12:38:19;;;;;;;;;;;;;;;;;;5053532;28;19912;-67
2022/09/18 12:40:44;;;;;;;;;;;;;;;;;;5071182;28;19912;-66
2022/09/18 12:43:09;;;;;;;;;;;;;;;;;;5072980;28;19912;-66
2022/09/18 12:45:34;;;;;;;;;;;;;;;;;;5054535;28;20196;-66
2022/09/18 12:48:00;;;;;;;;;;;;;;;;;;5054089;28;19923;-67
2022/09/18 12:50:26;;;;;;;;;;;;;;;;;;5077585;28;19951;-66
2022/09/18 12:52:51;;;;;;;;;;;;;;;;;;5055146;28;19920;-68
2022/09/18 12:55:16;;;;;;;;;;;;;;;;;;5076100;28;19921;-66
2022/09/18 12:57:41;;;;;;;;;;;;;;;;;;5084575;28;19926;-67
2022/09/18 13:00:08;;;;;;;;;;;;;;;;;;5076049;28;19973;-68
2022/09/18 13:02:33;;;;;;;;;;;;;;;;;;5078087;28;19920;-66
2022/09/18 13:04:58;;;;;;;;;;;;;;;;;;5073691;28;19912;-66
2022/09/18 13:07:23;;;;;;;;;;;;;;;;;;5066602;28;20306;-65
2022/09/18 13:09:48;;;;;;;;;;;;;;;;;;5075400;28;19919;-66
2022/09/18 13:12:13;;;;;;;;;;;;;;;;;;5072868;28;19916;-67
2022/09/18 13:14:39;;;;;;;;;;;;;;;;;;5070868;28;20377;-70
2022/09/18 13:17:04;;;;;;;;;;;;;;;;;;5060194;28;19921;-64
2022/09/18 13:19:29;;;;;;;;;;;;;;;;;;5053957;28;19921;-64
2022/09/18 13:21:54;;;;;;;;;;;;;;;;;;5052687;28;19924;-62
2022/09/18 13:24:19;;;;;;;;;;;;;;;;;;5061171;28;19974;-66
2022/09/18 13:26:46;;;;;;;;;;;;;;;;;;5039082;28;19916;-71
2022/09/18 13:29:11;;;;;;;;;;;;;;;;;;5051025;28;19913;-68
2022/09/18 13:31:36;;;;;;;;;;;;;;;;;;5066244;28;20010;-66
2022/09/18 13:34:03;;;;;;;;;;;;;;;;;;5054385;28;20365;-66
2022/09/18 13:36:28;;;;;;;;;;;;;;;;;;5038484;28;20043;-73
2022/09/18 13:38:53;;;;;;;;;;;;;;;;;;5053157;28;19920;-67
2022/09/18 13:41:18;;;;;;;;;;;;;;;;;;5036946;28;20369;-73
2022/09/18 13:43:43;;;;;;;;;;;;;;;;;;5063249;28;20369;-71
2022/09/18 13:46:09;;;;;;;;;;;;;;;;;;5032124;28;19917;-70
2022/09/18 13:48:34;;;;;;;;;;;;;;;;;;5055965;28;19913;-63
2022/09/18 13:50:59;;;;;;;;;;;;;;;;;;5050056;28;19912;-63
2022/09/18 13:53:24;;;;;;;;;;;;;;;;;;5052366;28;20361;-63
2022/09/18 13:55:49;;;;;;;;;;;;;;;;;;5034678;28;19917;-64
2022/09/18 13:58:14;;;;;;;;;;;;;;;;;;5047913;28;19913;-65
2022/09/18 14:00:40;;;;;;;;;;;;;;;;;;5052935;28;19909;-64
2022/09/18 14:03:05;;;;;;;;;;;;;;;;;;5062277;28;19923;-65
2022/09/18 14:05:30;;;;;;;;;;;;;;;;;;5060901;28;20281;-63
2022/09/18 14:07:55;;;;;;;;;;;;;;;;;;5056792;28;20284;-65
2022/09/18 14:10:20;;;;;;;;;;;;;;;;;;5032501;28;20377;-67
2022/09/18 14:12:46;;;;;;;;;;;;;;;;;;5051172;28;19958;-71
2022/09/18 14:15:11;;;;;;;;;;;;;;;;;;5056052;28;20436;-61
2022/09/18 14:17:37;;;;;;;;;;;;;;;;;;5061793;28;20352;-64
2022/09/18 14:20:07;;;;;;;;;;;;;;;;;;5073617;28;20317;-59
2022/09/18 14:22:35;;;;;;;;;;;;;;;;;;5070361;28;19930;-60
2022/09/18 14:25:01;;;;;;;;;;;;;;;;;;5054771;28;20751;-60
2022/09/18 14:27:27;;;;;;;;;;;;;;;;;;5071296;28;20053;-60
2022/09/18 14:29:52;;;;;;;;;;;;;;;;;;5069060;28;20007;-60
2022/09/18 14:32:18;;;;;;;;;;;;;;;;;;5071011;28;19969;-61
2022/09/18 14:34:43;;;;;;;;;;;;;;;;;;5052207;28;20373;-60
2022/09/18 14:37:08;;;;;;;;;;;;;;;;;;5073174;28;19920;-62
2022/09/18 14:39:33;;;;;;;;;;;;;;;;;;5071140;28;19920;-67
2022/09/18 14:41:58;;;;;;;;;;;;;;;;;;5072921;28;20295;-67
2022/09/18 14:44:23;;;;;;;;;;;;;;;;;;5070519;28;19923;-75
2022/09/18 14:46:49;;;;;;;;;;;;;;;;;;5051930;28;20863;-68
2022/09/18 14:49:14;;;;;;;;;;;;;;;;;;5056450;28;19916;-66
2022/09/18 14:51:39;;;;;;;;;;;;;;;;;;5081245;28;19916;-67
2022/09/18 14:54:04;;;;;;;;;;;;;;;;;;5052991;28;19935;-67
2022/09/18 14:56:29;;;;;;;;;;;;;;;;;;5074696;28;20018;-67
2022/09/18 14:58:55;;;;;;;;;;;;;;;;;;5081352;28;19916;-67
2022/09/18 15:01:20;;;;;;;;;;;;;;;;;;5063353;28;19908;-68
2022/09/18 15:03:45;;;;;;;;;;;;;;;;;;5065324;28;20043;-67
2022/09/18 15:06:10;;;;;;;;;;;;;;;;;;5061080;28;19916;-68
2022/09/18 15:08:35;;;;;;;;;;;;;;;;;;5072492;28;19916;-68
2022/09/18 15:11:00;;;;;;;;;;;;;;;;;;5068683;28;20341;-68
2022/09/18 15:13:26;;;;;;;;;;;;;;;;;;5051394;28;19996;-67
2022/09/18 15:15:51;;;;;;;;;;;;;;;;;;5072154;28;19916;-68
2022/09/18 15:18:16;;;;;;;;;;;;;;;;;;5068242;28;19924;-67
2022/09/18 15:20:41;;;;;;;;;;;;;;;;;;5055133;28;19916;-67
2022/09/18 15:23:06;;;;;;;;;;;;;;;;;;5070202;28;19951;-68
2022/09/18 15:25:31;;;;;;;;;;;;;;;;;;5069028;28;19912;-68
2022/09/18 15:27:57;;;;;;;;;;;;;;;;;;5055311;28;19916;-65
2022/09/18 15:30:22;;;;;;;;;;;;;;;;;;5071196;28;19912;-64
2022/09/18 15:32:47;;;;;;;;;;;;;;;;;;5073409;28;19919;-67
2022/09/18 15:35:13;;;;;;;;;;;;;;;;;;5050603;28;20012;-68
2022/09/18 15:37:39;;;;;;;;;;;;;;;;;;5068082;28;20006;-68
2022/09/18 15:40:05;;;;;;;;;;;;;;;;;;5054762;28;19939;-68
2022/09/18 15:42:30;;;;;;;;;;;;;;;;;;5067244;28;20369;-66
2022/09/18 15:44:55;;;;;;;;;;;;;;;;;;5053540;28;19923;-68
2022/09/18 15:47:20;;;;;;;;;;;;;;;;;;5062556;28;20018;-69
2022/09/18 15:49:45;;;;;;;;;;;;;;;;;;5067936;28;19921;-68
2022/09/18 15:52:10;;;;;;;;;;;;;;;;;;5048345;28;20292;-69
2022/09/18 15:54:36;;;;;;;;;;;;;;;;;;5053143;28;20150;-69
2022/09/18 15:57:01;;;;;;;;;;;;;;;;;;5049214;28;19962;-67
2022/09/18 15:59:26;;;;;;;;;;;;;;;;;;5071529;28;19936;-69
2022/09/18 16:01:51;;;;;;;;;;;;;;;;;;5069086;28;19916;-69
2022/09/18 16:04:16;;;;;;;;;;;;;;;;;;5054052;28;20045;-70
2022/09/18 16:06:42;;;;;;;;;;;;;;;;;;5051660;28;19921;-67
2022/09/18 16:09:07;;;;;;;;;;;;;;;;;;5073314;28;19942;-68
2022/09/18 16:11:32;;;;;;;;;;;;;;;;;;5077670;28;20015;-68
2022/09/18 16:13:57;;;;;;;;;;;;;;;;;;5072623;28;20364;-68
2022/09/18 16:16:22;;;;;;;;;;;;;;;;;;5070061;28;20045;-68
2022/09/18 16:18:47;;;;;;;;;;;;;;;;;;5057937;28;19919;-69
2022/09/18 16:21:13;;;;;;;;;;;;;;;;;;5055816;28;19921;-69
2022/09/18 16:23:38;;;;;;;;;;;;;;;;;;5061125;28;19916;-67
2022/09/18 16:26:04;;;;;;;;;;;;;;;;;;5075854;28;19916;-67
2022/09/18 16:28:29;;;;;;;;;;;;;;;;;;5055023;28;20352;-68
2022/09/18 16:30:54;;;;;;;;;;;;;;;;;;5056275;28;19919;-68